Time;durP1;ratioP1;P1;durP2;ratioP2;P2;SDS_P1;SDS_P2;PMS_P1;PMS_P2;Temp;Humidity;BMP_temperature;BMP_pressure;BME280_temperature;BME280_humidity;BME280_pressure;Samples;Min_cycle;Max_cycle;Signal;HPM_P1;HPM_P2
2022/08/07 00:00:57;;;;;;;9.67;3.70;;;20.90;51.30;;;;;;5080451;28;20199;-96
2022/08/07 00:03:27;;;;;;;9.77;3.40;;;20.80;51.40;;;;;;5073843;28;20230;-96
2022/08/07 00:05:57;;;;;;;7.07;3.20;;;20.80;51.50;;;;;;5077559;28;20275;-95
2022/08/07 00:08:32;;;;;;;5.87;2.50;;;20.80;51.50;;;;;;5089157;28;20253;-96
2022/08/07 00:11:02;;;;;;;9.13;3.33;;;20.70;51.80;;;;;;5088563;28;20230;-95
2022/08/07 00:13:31;;;;;;;11.80;3.70;;;20.70;51.70;;;;;;5105945;28;20203;-96
2022/08/07 00:15:59;;;;;;;13.37;4.77;;;20.70;51.70;;;;;;5100342;28;20207;-96
2022/08/07 00:18:29;;;;;;;9.73;3.67;;;20.60;51.90;;;;;;5077614;28;20203;-96
2022/08/07 00:20:58;;;;;;;9.97;3.50;;;20.60;52.20;;;;;;5086666;28;20229;-96
2022/08/07 00:23:25;;;;;;;7.10;2.80;;;20.50;52.10;;;;;;5089276;28;20206;-96
2022/08/07 00:25:55;;;;;;;5.20;2.47;;;20.40;52.10;;;;;;5075754;28;20257;-96
2022/08/07 00:28:23;;;;;;;10.17;3.00;;;20.40;52.40;;;;;;5077290;28;20199;-96
2022/08/07 00:30:50;;;;;;;3.10;1.70;;;20.40;52.30;;;;;;5077242;28;20227;-96
2022/08/07 00:33:27;;;;;;;7.17;2.90;;;20.30;52.30;;;;;;5076751;28;20241;-95
2022/08/07 00:35:54;;;;;;;4.47;2.13;;;20.30;52.90;;;;;;5076875;28;20268;-96
2022/08/07 00:38:23;;;;;;;3.23;2.07;;;20.30;52.60;;;;;;5076016;28;20212;-95
2022/08/07 00:40:57;;;;;;;5.47;2.70;;;20.20;52.60;;;;;;5078737;28;20656;-94
2022/08/07 00:43:24;;;;;;;9.17;3.43;;;20.10;52.90;;;;;;5095979;28;20201;-94
2022/08/07 00:45:52;;;;;;;13.50;4.63;;;20.10;52.70;;;;;;5073861;28;20730;-96
2022/08/07 00:48:18;;;;;;;12.10;4.70;;;20.10;52.70;;;;;;5071045;28;20638;-96
2022/08/07 00:50:46;;;;;;;13.07;4.67;;;20.00;52.80;;;;;;5073464;28;20232;-92
2022/08/07 00:53:13;;;;;;;10.33;3.50;;;20.00;52.90;;;;;;5101285;28;20200;-91
2022/08/07 00:55:40;;;;;;;10.70;3.67;;;19.90;52.90;;;;;;5102551;28;20209;-95
2022/08/07 00:58:09;;;;;;;14.97;5.43;;;19.90;53.00;;;;;;5096433;28;20211;-92
2022/08/07 01:00:36;;;;;;;9.93;4.10;;;19.90;53.30;;;;;;5084467;28;20203;-95
2022/08/07 01:03:05;;;;;;;11.93;4.40;;;19.80;53.20;;;;;;5102630;28;20270;-96
2022/08/07 01:05:36;;;;;;;6.50;2.83;;;19.80;53.30;;;;;;5096795;28;20585;-96
2022/08/07 01:08:05;;;;;;;9.97;3.77;;;19.80;53.50;;;;;;5092399;28;20218;-96
2022/08/07 01:10:33;;;;;;;5.90;2.70;;;19.80;53.40;;;;;;5085077;28;20234;-96
2022/08/07 01:13:02;;;;;;;9.60;3.40;;;19.70;53.30;;;;;;5095291;28;20280;-93
2022/08/07 01:15:37;;;;;;;9.03;3.77;;;19.70;53.60;;;;;;5089065;28;20220;-94
2022/08/07 01:18:06;;;;;;;9.87;3.20;;;19.60;53.90;;;;;;5091271;28;20202;-92
2022/08/07 01:20:42;;;;;;;8.60;3.37;;;19.60;53.60;;;;;;5094221;28;20659;-95
2022/08/07 01:23:11;;;;;;;5.60;2.73;;;19.60;53.90;;;;;;5092047;28;20263;-94
2022/08/07 01:25:40;;;;;;;6.67;3.00;;;19.60;53.80;;;;;;5077616;28;20666;-96
2022/08/07 01:28:10;;;;;;;9.40;3.57;;;19.50;53.80;;;;;;5075386;28;20231;-96
2022/08/07 01:30:44;;;;;;;9.83;3.73;;;19.50;53.90;;;;;;5074008;28;20298;-93
2022/08/07 01:33:14;;;;;;;7.87;3.80;;;19.40;54.20;;;;;;5081397;28;20214;-96
2022/08/07 01:35:42;;;;;;;7.57;3.20;;;19.40;54.10;;;;;;5094213;28;20290;-95
2022/08/07 01:38:11;;;;;;;7.10;2.77;;;19.40;54.10;;;;;;5078707;28;20686;-94
2022/08/07 01:40:40;;;;;;;7.10;2.70;;;19.40;54.30;;;;;;5074002;28;20202;-96
2022/08/07 01:43:08;;;;;;;6.43;3.03;;;19.30;54.20;;;;;;5086106;28;20230;-95
2022/08/07 01:45:40;;;;;;;9.97;3.73;;;19.30;54.30;;;;;;5094357;28;20558;-96
2022/08/07 01:48:08;;;;;;;7.47;3.23;;;19.30;54.50;;;;;;5080990;28;20213;-95
2022/08/07 01:50:37;;;;;;;9.67;3.47;;;19.20;54.30;;;;;;5074048;28;20218;-95
2022/08/07 01:53:07;;;;;;;5.57;2.33;;;19.20;54.40;;;;;;5075309;28;20256;-96
2022/08/07 01:55:44;;;;;;;8.17;3.23;;;19.20;54.60;;;;;;5080686;28;20285;-96
2022/08/07 01:58:15;;;;;;;7.83;3.50;;;19.10;54.70;;;;;;5079861;28;20212;-95
2022/08/07 02:00:46;;;;;;;8.07;3.13;;;19.10;54.40;;;;;;5074670;28;20256;-95
2022/08/07 02:03:16;;;;;;;8.97;3.73;;;19.10;54.40;;;;;;5097704;28;20211;-91
2022/08/07 02:05:48;;;;;;;7.47;3.67;;;19.10;54.50;;;;;;5109291;28;20267;-93
2022/08/07 02:08:26;;;;;;;6.63;3.47;;;19.10;54.90;;;;;;5104331;28;20191;-95
2022/08/07 02:11:00;;;;;;;6.10;2.73;;;19.10;55.20;;;;;;5092857;28;20214;-95
2022/08/07 02:13:31;;;;;;;8.30;3.37;;;19.10;54.90;;;;;;5091636;28;20229;-95
2022/08/07 02:16:06;;;;;;;6.13;3.10;;;19.10;54.50;;;;;;5080367;28;20206;-96
2022/08/07 02:18:37;;;;;;;6.63;3.03;;;19.00;54.40;;;;;;5074375;28;20664;-95
2022/08/07 02:21:09;;;;;;;9.83;3.50;;;19.00;54.70;;;;;;5084122;28;20213;-94
2022/08/07 02:23:39;;;;;;;14.40;4.93;;;19.00;54.90;;;;;;5093089;28;20251;-94
2022/08/07 02:26:11;;;;;;;5.00;2.33;;;19.00;55.00;;;;;;5105195;28;20253;-95
2022/08/07 02:28:58;;;;;;;7.30;2.23;;;18.90;55.30;;;;;;5104037;28;20191;-96
2022/08/07 02:31:26;;;;;;;9.83;3.83;;;18.90;55.80;;;;;;5115104;28;20252;-93
2022/08/07 02:33:57;;;;;;;4.23;2.17;;;18.90;55.20;;;;;;5083178;28;20199;-96
2022/08/07 02:36:27;;;;;;;6.83;3.23;;;18.80;55.50;;;;;;5077294;28;20238;-96
2022/08/07 02:39:07;;;;;;;6.27;3.23;;;18.80;55.20;;;;;;5075991;28;20207;-96
2022/08/07 02:41:39;;;;;;;7.23;3.43;;;18.80;55.60;;;;;;5076485;28;20214;-96
2022/08/07 02:44:14;;;;;;;6.70;2.90;;;18.80;55.40;;;;;;5095360;28;20189;-94
2022/08/07 02:46:46;;;;;;;7.47;3.20;;;18.70;55.80;;;;;;5075538;28;20214;-96
2022/08/07 02:49:17;;;;;;;9.17;3.87;;;18.70;55.70;;;;;;5076834;28;20193;-96
2022/08/07 02:51:46;;;;;;;6.00;3.23;;;18.70;55.90;;;;;;5093736;28;20239;-96
2022/08/07 02:54:16;;;;;;;6.00;2.90;;;18.60;55.80;;;;;;5078943;28;20208;-95
2022/08/07 02:56:48;;;;;;;5.87;3.23;;;18.60;55.90;;;;;;5076915;28;20267;-96
2022/08/07 02:59:21;;;;;;;4.47;2.87;;;18.60;56.10;;;;;;5073996;28;20217;-95
2022/08/07 03:01:48;;;;;;;6.37;3.07;;;18.50;56.20;;;;;;5090752;28;20243;-93
2022/08/07 03:04:19;;;;;;;6.20;3.40;;;18.50;56.00;;;;;;5094283;28;20228;-96
2022/08/07 03:06:47;;;;;;;7.83;3.73;;;18.40;56.30;;;;;;5077459;28;20242;-96
2022/08/07 03:09:18;;;;;;;5.47;3.07;;;18.40;56.30;;;;;;5082347;28;20297;-96
2022/08/07 03:11:54;;;;;;;7.27;3.00;;;18.40;56.50;;;;;;5093617;28;20263;-96
2022/08/07 03:14:22;;;;;;;6.47;3.33;;;18.30;56.60;;;;;;5093732;28;20712;-96
2022/08/07 03:16:52;;;;;;;6.13;3.03;;;18.30;56.30;;;;;;5077390;28;20199;-96
2022/08/07 03:19:26;;;;;;;7.67;3.60;;;18.30;56.10;;;;;;5073791;28;20194;-96
2022/08/07 03:21:54;;;;;;;10.63;4.50;;;18.20;56.00;;;;;;5072595;28;20192;-96
2022/08/07 03:24:21;;;;;;;10.50;4.23;;;18.20;56.20;;;;;;5070353;28;20569;-95
2022/08/07 03:26:50;;;;;;;11.07;4.40;;;18.20;56.60;;;;;;5071158;28;20317;-95
2022/08/07 03:29:26;;;;;;;10.87;4.73;;;18.20;56.70;;;;;;5071691;28;20567;-96
2022/08/07 03:31:53;;;;;;;7.50;3.23;;;18.20;57.10;;;;;;5073158;28;20256;-95
2022/08/07 03:34:22;;;;;;;13.10;4.80;;;18.10;56.60;;;;;;5077577;28;20210;-92
2022/08/07 03:36:55;;;;;;;8.70;3.60;;;18.10;56.70;;;;;;5073664;28;20650;-96
2022/08/07 03:39:27;;;;;;;6.43;3.43;;;18.10;57.00;;;;;;5078309;28;20720;-96
2022/08/07 03:41:57;;;;;;;5.63;3.20;;;18.10;57.00;;;;;;5094500;28;20209;-96
2022/08/07 03:44:27;;;;;;;8.73;4.40;;;18.10;57.00;;;;;;5085870;28;20193;-95
2022/08/07 03:46:54;;;;;;;10.07;3.83;;;18.00;56.90;;;;;;5084202;28;20204;-91
2022/08/07 03:49:22;;;;;;;9.00;3.77;;;18.00;56.90;;;;;;5095304;28;20201;-93
2022/08/07 03:51:51;;;;;;;9.67;4.33;;;18.00;56.90;;;;;;5108860;28;20225;-95
2022/08/07 03:54:19;;;;;;;11.10;4.50;;;17.90;57.00;;;;;;5099048;28;20257;-92
2022/08/07 03:56:48;;;;;;;5.57;3.27;;;17.90;57.00;;;;;;5090510;28;20204;-93
2022/08/07 03:59:21;;;;;;;6.77;3.57;;;17.90;57.00;;;;;;5098228;28;20205;-91
2022/08/07 04:01:53;;;;;;;8.37;3.73;;;17.90;57.30;;;;;;5099668;28;20205;-96
2022/08/07 04:04:22;;;;;;;12.93;4.87;;;17.80;57.10;;;;;;5088892;28;20708;-92
2022/08/07 04:06:52;;;;;;;4.77;2.90;;;17.80;57.20;;;;;;5076852;28;20201;-96
2022/08/07 04:09:20;;;;;;;5.63;3.30;;;17.80;57.30;;;;;;5077210;28;20206;-94
2022/08/07 04:11:51;;;;;;;6.90;3.37;;;17.80;57.30;;;;;;5075820;28;20241;-94
2022/08/07 04:14:20;;;;;;;5.40;2.77;;;17.80;57.40;;;;;;5076323;28;20214;-95
2022/08/07 04:16:55;;;;;;;3.43;2.93;;;17.80;57.40;;;;;;5075188;28;20207;-94
2022/08/07 04:19:24;;;;;;;10.93;4.27;;;17.80;57.70;;;;;;5075503;28;20202;-94
2022/08/07 04:21:53;;;;;;;7.40;3.93;;;17.80;57.50;;;;;;5075762;28;20234;-95
2022/08/07 04:24:21;;;;;;;7.63;4.07;;;17.70;57.40;;;;;;5086464;28;20217;-93
2022/08/07 04:26:50;;;;;;;4.80;2.80;;;17.70;57.50;;;;;;5095282;28;20208;-96
2022/08/07 04:29:20;;;;;;;8.93;4.33;;;17.70;57.60;;;;;;5084285;28;20226;-96
2022/08/07 04:31:48;;;;;;;9.07;3.97;;;17.70;57.70;;;;;;5075944;28;20250;-96
2022/08/07 04:34:18;;;;;;;11.37;4.63;;;17.70;57.80;;;;;;5078502;28;20577;-96
2022/08/07 04:36:49;;;;;;;5.63;3.40;;;17.60;57.90;;;;;;5076678;28;20497;-96
2022/08/07 04:39:16;;;;;;;9.33;3.57;;;17.60;58.00;;;;;;5087858;28;20655;-96
2022/08/07 04:41:44;;;;;;;8.00;4.00;;;17.60;57.80;;;;;;5097063;28;20210;-96
2022/08/07 04:44:12;;;;;;;6.97;3.43;;;17.50;57.90;;;;;;5096185;28;20235;-96
2022/08/07 04:46:47;;;;;;;9.07;4.60;;;17.50;57.80;;;;;;5096537;28;20720;-96
2022/08/07 04:49:20;;;;;;;13.47;6.03;;;17.60;58.10;;;;;;5096945;28;20655;-93
2022/08/07 04:51:57;;;;;;;8.87;4.57;;;17.50;57.70;;;;;;5104129;28;20252;-96
2022/08/07 04:54:33;;;;;;;8.40;4.30;;;17.50;57.90;;;;;;5113394;28;20217;-93
2022/08/07 04:57:07;;;;;;;6.13;4.10;;;17.60;58.00;;;;;;5100825;28;20203;-96
2022/08/07 04:59:43;;;;;;;6.93;3.93;;;17.60;58.00;;;;;;5094570;28;20550;-92
2022/08/07 05:02:14;;;;;;;11.90;5.60;;;17.60;58.20;;;;;;5100540;28;20280;-92
2022/08/07 05:05:00;;;;;;;13.83;6.13;;;17.60;58.10;;;;;;5107259;28;20768;-92
2022/08/07 05:07:36;;;;;;;10.07;5.03;;;17.60;59.50;;;;;;5093261;28;20193;-93
2022/08/07 05:10:10;;;;;;;5.77;3.60;;;17.60;58.90;;;;;;5112974;28;20206;-92
2022/08/07 05:12:48;;;;;;;6.70;4.00;;;17.60;58.80;;;;;;5111039;28;20228;-95
2022/08/07 05:15:30;;;;;;;10.27;3.93;;;17.60;58.90;;;;;;5095243;28;20220;-94
2022/08/07 05:18:02;;;;;;;4.87;3.40;;;17.60;59.20;;;;;;5092729;28;20199;-95
2022/08/07 05:20:38;;;;;;;9.53;4.17;;;17.60;59.00;;;;;;5094561;28;20983;-94
2022/08/07 05:23:11;;;;;;;6.83;4.10;;;17.60;59.20;;;;;;5095765;28;20583;-95
2022/08/07 05:25:43;;;;;;;5.60;3.37;;;17.60;58.70;;;;;;5081605;28;20208;-95
2022/08/07 05:28:13;;;;;;;9.20;4.50;;;17.60;58.50;;;;;;5074407;28;20197;-95
2022/08/07 05:30:41;;;;;;;10.70;4.97;;;17.60;58.40;;;;;;5078849;28;20284;-95
2022/08/07 05:33:11;;;;;;;6.70;3.90;;;17.60;58.60;;;;;;5094494;28;20234;-96
2022/08/07 05:35:46;;;;;;;6.73;4.03;;;17.70;58.90;;;;;;5082782;28;20205;-96
2022/08/07 05:38:15;;;;;;;7.43;4.27;;;17.70;59.60;;;;;;5075049;28;20233;-96
2022/08/07 05:40:43;;;;;;;8.43;4.40;;;17.70;59.70;;;;;;5082820;28;20903;-94
2022/08/07 05:43:10;;;;;;;6.60;4.07;;;17.80;59.40;;;;;;5095461;28;20186;-96
2022/08/07 05:45:39;;;;;;;6.43;4.17;;;17.80;58.90;;;;;;5084213;28;20231;-96
2022/08/07 05:48:08;;;;;;;6.30;4.23;;;17.80;58.70;;;;;;5074646;28;20236;-95
2022/08/07 05:50:36;;;;;;;8.30;4.60;;;17.80;58.70;;;;;;5088549;28;20194;-94
2022/08/07 05:53:05;;;;;;;7.30;4.23;;;17.90;58.40;;;;;;5079559;28;20267;-96
2022/08/07 05:55:34;;;;;;;7.50;4.67;;;17.90;58.30;;;;;;5093949;28;20963;-94
2022/08/07 05:58:02;;;;;;;7.30;4.63;;;18.00;58.40;;;;;;5094826;28;20214;-96
2022/08/07 06:00:37;;;;;;;9.93;5.37;;;17.90;58.20;;;;;;5081654;28;20679;-96
2022/08/07 06:03:06;;;;;;;10.27;5.53;;;18.00;58.80;;;;;;5074924;28;20236;-96
2022/08/07 06:05:37;;;;;;;7.17;4.77;;;18.00;58.90;;;;;;5075403;28;20226;-96
2022/08/07 06:08:06;;;;;;;14.70;6.73;;;18.10;58.80;;;;;;5081736;28;20245;-95
2022/08/07 06:10:36;;;;;;;9.37;5.47;;;18.10;58.90;;;;;;5092723;28;20738;-96
2022/08/07 06:13:05;;;;;;;11.97;5.80;;;18.20;59.20;;;;;;5090167;28;20262;-96
2022/08/07 06:15:36;;;;;;;13.93;6.80;;;18.30;59.30;;;;;;5086515;28;20227;-96
2022/08/07 06:18:04;;;;;;;8.93;5.97;;;18.30;59.70;;;;;;5080381;28;20237;-96
2022/08/07 06:20:31;;;;;;;12.13;6.80;;;18.40;59.70;;;;;;5092335;28;20228;-96
2022/08/07 06:23:00;;;;;;;14.10;7.47;;;18.50;59.90;;;;;;5088755;28;20249;-95
2022/08/07 06:25:31;;;;;;;11.27;6.63;;;18.50;59.90;;;;;;5082371;28;20225;-94
2022/08/07 06:28:04;;;;;;;12.70;6.67;;;18.60;60.30;;;;;;5078631;28;20206;-93
2022/08/07 06:30:31;;;;;;;12.23;7.20;;;18.60;60.40;;;;;;5073340;28;20198;-96
2022/08/07 06:32:59;;;;;;;10.33;6.00;;;18.70;60.00;;;;;;5071998;28;20237;-96
2022/08/07 06:35:30;;;;;;;11.33;5.57;;;18.80;60.30;;;;;;5074655;28;20201;-96
2022/08/07 06:37:57;;;;;;;12.73;6.50;;;18.80;60.70;;;;;;5073383;28;20237;-96
2022/08/07 06:40:25;;;;;;;10.30;5.80;;;18.90;60.00;;;;;;5074766;28;20211;-95
2022/08/07 06:42:54;;;;;;;8.20;4.90;;;19.00;60.00;;;;;;5085998;28;20234;-95
2022/08/07 06:45:23;;;;;;;7.03;4.33;;;19.00;59.90;;;;;;5095980;28;20418;-95
2022/08/07 06:47:53;;;;;;;6.93;4.50;;;19.10;60.20;;;;;;5094340;28;20202;-96
2022/08/07 06:50:21;;;;;;;10.30;5.37;;;19.10;60.10;;;;;;5075227;28;20610;-96
2022/08/07 06:52:53;;;;;;;8.73;4.90;;;19.20;60.20;;;;;;5076348;28;20235;-94
2022/08/07 06:55:26;;;;;;;6.90;4.23;;;19.30;60.00;;;;;;5073846;28;20203;-96
2022/08/07 06:58:04;;;;;;;7.50;4.20;;;19.40;60.10;;;;;;5088272;28;20208;-94
2022/08/07 07:00:35;;;;;;;8.67;4.47;;;19.50;60.40;;;;;;5093454;28;20285;-95
2022/08/07 07:03:03;;;;;;;8.03;4.67;;;19.50;60.00;;;;;;5080588;28;20207;-95
2022/08/07 07:05:37;;;;;;;7.67;4.47;;;19.60;59.80;;;;;;5075533;28;20223;-96
2022/08/07 07:08:11;;;;;;;6.27;3.77;;;19.70;60.20;;;;;;5075432;28;20261;-95
2022/08/07 07:10:42;;;;;;;12.33;6.30;;;19.70;59.70;;;;;;5072908;28;20199;-95
2022/08/07 07:13:23;;;;;;;8.63;4.60;;;19.80;59.70;;;;;;5084931;28;20231;-95
2022/08/07 07:15:57;;;;;;;10.47;5.17;;;19.90;59.90;;;;;;5087864;28;20210;-96
2022/08/07 07:18:31;;;;;;;8.70;4.10;;;19.90;59.40;;;;;;5071038;28;20206;-93
2022/08/07 07:21:03;;;;;;;10.17;4.77;;;20.00;59.40;;;;;;5054382;28;20745;-95
2022/08/07 07:23:31;;;;;;;7.13;3.73;;;20.10;59.10;;;;;;5088241;28;20253;-95
2022/08/07 07:26:03;;;;;;;8.60;4.40;;;20.20;58.90;;;;;;5076325;28;20235;-95
2022/08/07 07:28:39;;;;;;;5.53;3.30;;;20.20;58.70;;;;;;5078182;28;20199;-94
2022/08/07 07:31:14;;;;;;;7.90;3.60;;;20.30;58.80;;;;;;5078853;28;20202;-96
2022/08/07 07:33:44;;;;;;;7.80;4.00;;;20.40;58.60;;;;;;5097635;28;20307;-93
2022/08/07 07:36:15;;;;;;;6.17;3.37;;;20.50;58.30;;;;;;5099562;28;20192;-95
2022/08/07 07:38:53;;;;;;;4.20;2.97;;;20.60;58.40;;;;;;5133116;28;20296;-93
2022/08/07 07:41:24;;;;;;;3.10;2.40;;;20.70;58.40;;;;;;5107722;28;20191;-96
2022/08/07 07:43:56;;;;;;;5.40;3.60;;;20.70;58.00;;;;;;5103909;28;20207;-96
2022/08/07 07:46:25;;;;;;;12.00;5.43;;;20.80;57.90;;;;;;5106443;28;20286;-96
2022/08/07 07:48:59;;;;;;;8.67;3.30;;;20.90;57.90;;;;;;5114142;28;20230;-95
2022/08/07 07:54:14;;;;;;;8.80;4.33;;;21.00;57.60;;;;;;5109283;28;20265;-95
2022/08/07 07:56:43;;;;;;;6.10;3.53;;;21.10;57.60;;;;;;5111200;28;20195;-96
2022/08/07 07:59:43;;;;;;;6.37;3.33;;;21.10;57.30;;;;;;5114992;28;20213;-94
2022/08/07 08:02:22;;;;;;;6.43;3.53;;;21.20;57.40;;;;;;5090264;28;20215;-96
2022/08/07 08:04:52;;;;;;;9.40;4.30;;;21.30;57.50;;;;;;5079008;28;20232;-93
2022/08/07 08:07:21;;;;;;;10.17;4.80;;;21.40;57.40;;;;;;5074502;28;20215;-96
2022/08/07 08:09:51;;;;;;;5.73;3.37;;;21.40;57.10;;;;;;5075743;28;20200;-94
2022/08/07 08:12:21;;;;;;;7.03;3.90;;;21.50;57.00;;;;;;5076420;28;20214;-94
2022/08/07 08:14:48;;;;;;;9.50;4.17;;;21.60;56.90;;;;;;5074801;28;20208;-95
2022/08/07 08:17:20;;;;;;;7.23;3.83;;;21.60;56.90;;;;;;5074551;28;20644;-94
2022/08/07 08:19:51;;;;;;;5.97;3.13;;;21.70;56.70;;;;;;5091887;28;20239;-94
2022/08/07 08:27:57;;;;;;;5.90;3.13;;;21.90;56.60;;;;;;5098175;28;20678;-96
2022/08/07 08:30:27;;;;;;;6.83;3.33;;;22.00;56.40;;;;;;5080409;28;20203;-96
2022/08/07 08:32:59;;;;;;;11.30;3.77;;;22.10;56.20;;;;;;5094675;28;20222;-94
2022/08/07 08:35:29;;;;;;;7.47;3.83;;;22.10;55.90;;;;;;5098825;28;20233;-96
2022/08/07 08:38:02;;;;;;;7.50;3.47;;;22.20;55.80;;;;;;5085152;28;20259;-93
2022/08/07 08:40:33;;;;;;;9.00;4.13;;;22.30;55.60;;;;;;5082949;28;20207;-95
2022/08/07 08:43:09;;;;;;;9.77;4.50;;;22.40;55.70;;;;;;5087359;28;20274;-96
2022/08/07 08:45:41;;;;;;;9.30;4.13;;;22.40;55.50;;;;;;5087187;28;20198;-96
2022/08/07 08:48:27;;;;;;;6.10;3.13;;;22.50;55.40;;;;;;5102222;28;20191;-96
2022/08/07 08:51:03;;;;;;;8.20;3.87;;;22.60;55.30;;;;;;5100738;28;20191;-94
2022/08/07 08:53:37;;;;;;;10.30;4.53;;;22.70;55.40;;;;;;5092294;28;20232;-96
2022/08/07 08:56:10;;;;;;;6.33;3.20;;;22.80;55.20;;;;;;5094366;28;20252;-96
2022/08/07 08:58:49;;;;;;;11.83;5.13;;;22.90;55.10;;;;;;5094824;28;20271;-95
2022/08/07 09:01:22;;;;;;;9.67;4.13;;;23.10;55.00;;;;;;5089201;28;20194;-96
2022/08/07 09:04:07;;;;;;;10.17;4.90;;;23.20;54.90;;;;;;5081907;28;20298;-95
2022/08/07 09:06:44;;;;;;;8.17;3.43;;;23.40;54.40;;;;;;5093593;28;20202;-94
2022/08/07 09:09:31;;;;;;;9.00;4.30;;;23.70;54.80;;;;;;5086922;28;20210;-89
2022/08/07 09:12:12;;;;;;;5.83;3.13;;;23.90;54.30;;;;;;5083195;28;20333;-90
2022/08/07 09:14:48;;;;;;;4.00;2.27;;;24.20;54.30;;;;;;5091529;28;20229;-91
2022/08/07 09:17:32;;;;;;;7.90;3.43;;;24.50;54.10;;;;;;5094853;28;20252;-94
2022/08/07 09:20:12;;;;;;;5.23;2.83;;;24.80;52.70;;;;;;5093613;28;20242;-94
2022/08/07 09:22:54;;;;;;;12.23;5.00;;;25.00;52.90;;;;;;5092031;28;20222;-95
2022/08/07 09:25:26;;;;;;;6.33;2.73;;;25.30;52.90;;;;;;5073982;28;20195;-95
2022/08/07 09:28:02;;;;;;;5.27;2.60;;;25.50;52.90;;;;;;5072352;28;20183;-93
2022/08/07 09:30:42;;;;;;;7.10;3.43;;;25.80;52.20;;;;;;5082688;28;20286;-95
2022/08/07 09:33:23;;;;;;;5.27;3.03;;;26.00;52.20;;;;;;5085881;28;20218;-94
2022/08/07 09:35:58;;;;;;;6.33;3.07;;;26.30;51.50;;;;;;5089687;28;20198;-93
2022/08/07 09:38:42;;;;;;;3.70;2.20;;;26.50;51.30;;;;;;5072153;28;20187;-95
2022/08/07 09:41:25;;;;;;;4.73;2.60;;;26.70;50.70;;;;;;5071577;28;20302;-90
2022/08/07 09:44:03;;;;;;;7.73;3.93;;;27.00;50.50;;;;;;5079101;28;20666;-94
2022/08/07 09:46:44;;;;;;;9.00;4.17;;;27.20;50.20;;;;;;5091516;28;20666;-94
2022/08/07 09:49:28;;;;;;;4.00;2.20;;;27.40;49.30;;;;;;5086338;28;20206;-93
2022/08/07 09:52:16;;;;;;;6.23;3.23;;;27.60;49.50;;;;;;5085787;28;20219;-92
2022/08/07 09:54:47;;;;;;;5.20;2.40;;;27.70;48.70;;;;;;5073250;28;20292;-94
2022/08/07 09:57:58;;;;;;;6.90;3.47;;;27.90;49.40;;;;;;5069922;28;20478;-96
2022/08/07 10:00:35;;;;;;;6.60;3.37;;;28.10;48.00;;;;;;5059680;28;20203;-95
2022/08/07 10:03:26;;;;;;;3.33;2.00;;;28.30;48.10;;;;;;5085287;28;20206;-95
2022/08/07 10:06:34;;;;;;;4.70;2.47;;;28.50;47.30;;;;;;5071927;28;20205;-96
2022/08/07 10:09:19;;;;;;;4.27;2.60;;;28.70;47.50;;;;;;5073240;28;20292;-96
2022/08/07 10:11:58;;;;;;;4.03;2.10;;;28.90;47.40;;;;;;5071556;28;20211;-96
2022/08/07 10:14:49;;;;;;;6.33;2.63;;;29.00;47.00;;;;;;5089983;28;20227;-96
2022/08/07 10:21:24;;;;;;;3.97;1.97;;;29.30;45.80;;;;;;5092127;28;20175;-96
2022/08/07 10:24:17;;;;;;;5.87;3.10;;;29.40;46.00;;;;;;5076849;28;20200;-95
2022/08/07 10:26:59;;;;;;;4.53;2.70;;;29.60;45.80;;;;;;5094252;28;20206;-96
2022/08/07 10:30:05;;;;;;;5.70;3.17;;;29.70;45.70;;;;;;5098509;28;20210;-96
2022/08/07 10:32:58;;;;;;;5.67;2.77;;;29.80;44.90;;;;;;5110458;28;20189;-96
2022/08/07 10:36:02;;;;;;;3.23;2.07;;;29.90;45.00;;;;;;5093897;28;20183;-96
2022/08/07 10:38:52;;;;;;;4.07;2.47;;;30.10;44.60;;;;;;5087987;28;20234;-96
2022/08/07 10:41:36;;;;;;;5.25;2.38;;;30.10;44.50;;;;;;5090514;28;20253;-96
2022/08/07 10:44:16;;;;;;;3.13;2.23;;;30.30;44.30;;;;;;5101853;28;20222;-95
2022/08/07 10:49:46;;;;;;;5.55;3.08;;;30.40;43.50;;;;;;5090765;28;20203;-96
2022/08/07 10:52:19;;;;;;;8.43;4.28;;;30.50;44.00;;;;;;5079112;28;20573;-96
2022/08/07 10:58:04;;;;;;;6.18;3.15;;;30.70;43.60;;;;;;5083664;28;20254;-96
2022/08/07 11:00:43;;;;;;;7.07;3.15;;;30.80;42.80;;;;;;5088759;28;20236;-95
2022/08/07 11:06:20;;;;;;;3.55;2.13;;;31.00;42.90;;;;;;5085472;28;20229;-96
2022/08/07 11:08:58;;;;;;;3.30;2.33;;;31.00;42.80;;;;;;5090548;28;20175;-96
2022/08/07 11:11:42;;;;;;;4.70;2.35;;;31.10;42.00;;;;;;5090536;28;20663;-96
2022/08/07 11:14:29;;;;;;;5.55;2.50;;;31.10;42.00;;;;;;5098760;28;20225;-96
2022/08/07 11:17:12;;;;;;;3.85;1.70;;;31.30;42.10;;;;;;5097189;28;20205;-96
2022/08/07 11:22:43;;;;;;;6.30;2.90;;;31.40;42.20;;;;;;5094933;28;20203;-96
2022/08/07 11:28:13;;;;;;;5.18;2.72;;;31.50;40.70;;;;;;5099586;28;20202;-96
2022/08/07 11:30:59;;;;;;;5.10;2.55;;;31.50;40.90;;;;;;5101390;28;20203;-96
2022/08/07 11:33:37;;;;;;;6.93;3.35;;;31.50;40.60;;;;;;5081840;28;20199;-95
2022/08/07 11:36:21;;;;;;;4.82;2.28;;;31.50;40.50;;;;;;5086216;28;20814;-96
2022/08/07 11:38:59;;;;;;;5.13;2.75;;;31.60;40.50;;;;;;5084929;28;20201;-96
2022/08/07 11:41:39;;;;;;;4.70;2.05;;;31.60;40.30;;;;;;5101717;28;20214;-96
2022/08/07 11:44:14;;;;;;;4.15;1.95;;;31.60;40.60;;;;;;5094467;28;20257;-96
2022/08/07 11:47:02;;;;;;;9.48;4.55;;;31.60;40.50;;;;;;5094458;28;21919;-96
2022/08/07 11:50:12;;;;;;;4.20;2.53;;;31.70;40.30;;;;;;5098709;28;20239;-96
2022/08/07 11:53:12;;;;;;;2.85;1.73;;;31.80;39.20;;;;;;5083043;28;20200;-96
2022/08/07 11:55:59;;;;;;;4.00;2.20;;;31.90;38.70;;;;;;5075721;28;20201;-96
2022/08/07 11:58:56;;;;;;;5.32;2.42;;;31.90;39.10;;;;;;5082365;28;20203;-96
2022/08/07 12:01:40;;;;;;;6.57;3.58;;;32.00;39.30;;;;;;5087913;28;20233;-96
2022/08/07 12:04:47;;;;;;;9.93;4.47;;;32.00;39.30;;;;;;5102563;28;20229;-96
2022/08/07 12:07:24;;;;;;;7.32;3.42;;;32.10;39.00;;;;;;5085797;28;20234;-96
2022/08/07 12:10:04;;;;;;;6.95;3.55;;;32.10;38.70;;;;;;5083099;28;20207;-96
2022/08/07 12:12:42;;;;;;;5.63;3.15;;;32.20;37.90;;;;;;5092149;28;20298;-94
2022/08/07 12:15:30;;;;;;;5.43;2.65;;;32.20;38.40;;;;;;5089763;28;20226;-96
2022/08/07 12:18:06;;;;;;;5.10;2.88;;;32.20;37.70;;;;;;5101265;28;20203;-95
2022/08/07 12:21:17;;;;;;;5.53;3.35;;;32.30;38.40;;;;;;5080257;28;20211;-95
2022/08/07 12:23:52;;;;;;;6.20;3.50;;;32.30;38.00;;;;;;5093365;28;20305;-95
2022/08/07 12:26:32;;;;;;;7.80;3.80;;;32.30;37.80;;;;;;5084794;28;20568;-95
2022/08/07 12:29:11;;;;;;;5.32;2.75;;;32.40;37.90;;;;;;5096503;28;20213;-95
2022/08/07 12:31:53;;;;;;;4.55;2.50;;;32.50;37.30;;;;;;5090739;28;20202;-95
2022/08/07 12:34:31;;;;;;;7.82;4.18;;;32.50;37.40;;;;;;5098448;28;20309;-94
2022/08/07 12:37:04;;;;;;;4.78;2.40;;;32.50;37.40;;;;;;5077917;28;20203;-95
2022/08/07 12:39:49;;;;;;;3.60;2.35;;;32.60;37.20;;;;;;5085235;28;20206;-95
2022/08/07 12:42:24;;;;;;;4.80;2.70;;;32.60;37.30;;;;;;5099438;28;20221;-93
2022/08/07 12:44:52;;;;;;;5.22;2.85;;;32.60;37.10;;;;;;5089451;28;20225;-94
2022/08/07 12:47:27;;;;;;;5.90;2.40;;;32.60;37.20;;;;;;5075725;28;20725;-96
2022/08/07 12:50:04;;;;;;;6.07;3.38;;;32.60;36.90;;;;;;5073601;28;20264;-93
2022/08/07 12:52:49;;;;;;;4.82;2.85;;;32.70;36.90;;;;;;5074210;28;20203;-94
2022/08/07 12:55:23;;;;;;;6.28;3.40;;;32.70;36.70;;;;;;5091674;28;20215;-93
2022/08/07 12:57:54;;;;;;;4.93;2.90;;;32.80;36.70;;;;;;5086275;28;20183;-93
2022/08/07 13:00:38;;;;;;;4.18;2.55;;;32.80;37.00;;;;;;5080429;28;20271;-95
2022/08/07 13:03:35;;;;;;;5.38;2.97;;;32.90;36.70;;;;;;5075616;28;20768;-93
2022/08/07 13:06:16;;;;;;;4.13;2.30;;;32.90;36.60;;;;;;5077195;28;20246;-95
2022/08/07 13:08:58;;;;;;;4.32;2.38;;;32.90;36.70;;;;;;5077102;28;20207;-95
2022/08/07 13:11:47;;;;;;;5.82;2.90;;;33.00;35.80;;;;;;5077557;28;20299;-91
2022/08/07 13:14:28;;;;;;;4.95;2.78;;;33.00;35.90;;;;;;5088387;28;20288;-90
2022/08/07 13:17:03;;;;;;;4.47;2.47;;;33.00;36.20;;;;;;5092777;28;20187;-94
2022/08/07 13:19:39;;;;;;;4.38;2.63;;;33.10;35.50;;;;;;5097347;28;20254;-94
2022/08/07 13:22:16;;;;;;;5.60;2.92;;;33.10;35.80;;;;;;5110498;28;20198;-95
2022/08/07 13:24:54;;;;;;;4.72;2.70;;;33.10;35.70;;;;;;5114484;28;20206;-95
2022/08/07 13:27:29;;;;;;;4.93;2.60;;;33.10;35.60;;;;;;5112294;28;20199;-94
2022/08/07 13:30:04;;;;;;;5.10;2.58;;;33.10;36.20;;;;;;5095315;28;20202;-94
2022/08/07 13:32:45;;;;;;;3.33;2.13;;;33.10;36.10;;;;;;5095353;28;20205;-95
2022/08/07 13:35:20;;;;;;;3.53;2.05;;;33.20;35.20;;;;;;5098378;28;20210;-93
2022/08/07 13:37:57;;;;;;;4.93;2.13;;;33.10;35.30;;;;;;5090117;28;20206;-91
2022/08/07 13:40:39;;;;;;;5.68;3.10;;;33.10;35.40;;;;;;5075919;28;20203;-95
2022/08/07 13:43:09;;;;;;;4.53;2.67;;;33.20;35.30;;;;;;5083782;28;20302;-93
2022/08/07 13:45:47;;;;;;;6.13;2.83;;;33.20;35.80;;;;;;5083418;28;20199;-93
2022/08/07 13:48:20;;;;;;;2.90;1.88;;;33.20;35.10;;;;;;5083799;28;20191;-93
2022/08/07 13:50:53;;;;;;;3.47;2.17;;;33.20;35.10;;;;;;5081162;28;20203;-96